Time;durP1;ratioP1;P1;durP2;ratioP2;P2;SDS_P1;SDS_P2;PMS_P1;PMS_P2;Temp;Humidity;BMP_temperature;BMP_pressure;BME280_temperature;BME280_humidity;BME280_pressure;Samples;Min_cycle;Max_cycle;Signal;HPM_P1;HPM_P2
2022/09/18 00:01:31;;;;;;;5.97;2.10;;;;;;;;;;5016237;28;20029;-64
2022/09/18 00:03:58;;;;;;;4.82;1.60;;;;;;;;;;5008163;28;20040;-65
2022/09/18 00:06:26;;;;;;;3.92;1.70;;;;;;;;;;4994197;28;20030;-65
2022/09/18 00:08:52;;;;;;;2.35;1.60;;;;;;;;;;5010511;28;20022;-64
2022/09/18 00:11:20;;;;;;;4.57;1.80;;;;;;;;;;5001354;28;20116;-65
2022/09/18 00:13:46;;;;;;;2.58;1.90;;;;;;;;;;5003120;28;20034;-64
2022/09/18 00:16:13;;;;;;;7.85;2.10;;;;;;;;;;5007758;28;20548;-65
2022/09/18 00:18:40;;;;;;;3.33;1.98;;;;;;;;;;4997345;28;20467;-65
2022/09/18 00:21:08;;;;;;;3.22;1.95;;;;;;;;;;4995580;28;20030;-64
2022/09/18 00:23:34;;;;;;;4.60;2.53;;;;;;;;;;5003507;28;20096;-64
2022/09/18 00:26:00;;;;;;;2.38;1.92;;;;;;;;;;5006367;28;20033;-64
2022/09/18 00:28:27;;;;;;;3.90;1.95;;;;;;;;;;4997946;28;20022;-64
2022/09/18 00:30:53;;;;;;;3.30;1.67;;;;;;;;;;4997400;28;20096;-65
2022/09/18 00:33:19;;;;;;;5.97;1.60;;;;;;;;;;4999028;28;20026;-64
2022/09/18 00:35:45;;;;;;;2.80;1.60;;;;;;;;;;5038740;28;20430;-64
2022/09/18 00:38:12;;;;;;;2.45;1.42;;;;;;;;;;5000015;28;20038;-64
2022/09/18 00:40:38;;;;;;;3.65;1.73;;;;;;;;;;5009919;28;20030;-65
2022/09/18 00:43:17;;;;;;;3.65;2.28;;;;;;;;;;4997321;28;20120;-65
2022/09/18 00:45:48;;;;;;;3.70;1.75;;;;;;;;;;5015909;28;20033;-64
2022/09/18 00:48:14;;;;;;;4.05;1.88;;;;;;;;;;4999668;28;20165;-64
2022/09/18 00:50:40;;;;;;;3.33;1.75;;;;;;;;;;5009771;28;20118;-64
2022/09/18 00:53:07;;;;;;;4.63;2.10;;;;;;;;;;4998231;28;20034;-65
2022/09/18 00:55:34;;;;;;;4.20;1.50;;;;;;;;;;5005296;28;20018;-64
2022/09/18 00:58:01;;;;;;;2.28;1.48;;;;;;;;;;4995166;28;20050;-64
2022/09/18 01:00:28;;;;;;;1.77;1.50;;;;;;;;;;5008764;28;20040;-64
2022/09/18 01:02:55;;;;;;;5.18;1.98;;;;;;;;;;4996444;28;20068;-64
2022/09/18 01:05:29;;;;;;;2.90;1.70;;;;;;;;;;5007013;28;20058;-64
2022/09/18 01:08:01;;;;;;;4.32;1.95;;;;;;;;;;5004140;28;20044;-64
2022/09/18 01:10:36;;;;;;;3.67;1.73;;;;;;;;;;5024393;28;20038;-64
2022/09/18 01:13:15;;;;;;;3.97;1.40;;;;;;;;;;5009423;28;20034;-64
2022/09/18 01:15:45;;;;;;;3.78;1.70;;;;;;;;;;5001658;28;20030;-64
2022/09/18 01:18:43;;;;;;;2.17;1.42;;;;;;;;;;5004281;28;20028;-64
2022/09/18 01:21:14;;;;;;;2.03;1.50;;;;;;;;;;5007242;28;20034;-64
2022/09/18 01:23:58;;;;;;;2.25;1.50;;;;;;;;;;5001206;28;20104;-64
2022/09/18 01:26:34;;;;;;;2.42;1.50;;;;;;;;;;5004337;28;20149;-64
2022/09/18 01:29:01;;;;;;;2.38;1.30;;;;;;;;;;4996561;28;20031;-64
2022/09/18 01:31:29;;;;;;;5.97;1.70;;;;;;;;;;5018542;28;20030;-64
2022/09/18 01:34:01;;;;;;;3.17;1.52;;;;;;;;;;5040658;28;20097;-64
2022/09/18 01:36:29;;;;;;;2.33;1.40;;;;;;;;;;5012649;28;20521;-64
2022/09/18 01:39:05;;;;;;;1.92;1.20;;;;;;;;;;5034281;28;20038;-64
2022/09/18 01:41:32;;;;;;;3.63;1.55;;;;;;;;;;5043486;28;20038;-64
2022/09/18 01:44:01;;;;;;;4.15;1.60;;;;;;;;;;5041157;28;20041;-64
2022/09/18 01:46:28;;;;;;;3.35;1.50;;;;;;;;;;5036798;28;20030;-64
2022/09/18 01:49:00;;;;;;;2.80;1.50;;;;;;;;;;5047864;28;20117;-64
2022/09/18 01:51:29;;;;;;;5.85;1.60;;;;;;;;;;5042156;28;20030;-64
2022/09/18 01:54:00;;;;;;;2.03;1.45;;;;;;;;;;5003116;28;20490;-64
2022/09/18 01:56:30;;;;;;;3.00;1.92;;;;;;;;;;5003505;28;20445;-64
2022/09/18 01:58:59;;;;;;;4.22;1.67;;;;;;;;;;5007711;28;20348;-64
2022/09/18 02:01:35;;;;;;;2.92;1.40;;;;;;;;;;5012797;28;20033;-64
2022/09/18 02:04:07;;;;;;;2.42;1.50;;;;;;;;;;5002317;28;20046;-64
2022/09/18 02:06:36;;;;;;;1.60;1.17;;;;;;;;;;5044650;28;20065;-64
2022/09/18 02:09:03;;;;;;;3.83;1.73;;;;;;;;;;5000292;28;20030;-64
2022/09/18 02:11:30;;;;;;;2.60;1.60;;;;;;;;;;5011454;28;20079;-64
2022/09/18 02:14:01;;;;;;;1.90;1.20;;;;;;;;;;5033563;28;20093;-64
2022/09/18 02:16:55;;;;;;;1.83;1.30;;;;;;;;;;5019624;28;20410;-64
2022/09/18 02:19:44;;;;;;;1.48;1.27;;;;;;;;;;5037600;28;20495;-64
2022/09/18 02:22:12;;;;;;;2.40;1.60;;;;;;;;;;5013781;28;20042;-64
2022/09/18 02:24:39;;;;;;;3.92;1.30;;;;;;;;;;5004239;28;20026;-64
2022/09/18 02:27:07;;;;;;;1.98;1.40;;;;;;;;;;5040052;28;20038;-64
2022/09/18 02:29:34;;;;;;;2.97;1.35;;;;;;;;;;5012455;28;20026;-64
2022/09/18 02:32:00;;;;;;;2.15;1.40;;;;;;;;;;5014220;28;20545;-64
2022/09/18 02:34:26;;;;;;;3.83;1.23;;;;;;;;;;5002439;28;20028;-64
2022/09/18 02:37:22;;;;;;;1.50;1.40;;;;;;;;;;5042134;28;20041;-64
2022/09/18 02:39:57;;;;;;;2.70;1.50;;;;;;;;;;4979863;28;20045;-64
2022/09/18 02:42:34;;;;;;;4.03;3.00;;;;;;;;;;4997085;28;20041;-64
2022/09/18 02:45:14;;;;;;;2.67;2.13;;;;;;;;;;4986234;28;20050;-64
2022/09/18 02:47:49;;;;;;;4.30;1.42;;;;;;;;;;4998899;28;20034;-64
2022/09/18 02:50:22;;;;;;;1.45;1.30;;;;;;;;;;4993185;28;20045;-64
2022/09/18 02:52:54;;;;;;;3.38;1.48;;;;;;;;;;4993182;28;20029;-64
2022/09/18 02:55:25;;;;;;;2.78;1.42;;;;;;;;;;5001705;28;20076;-64
2022/09/18 02:58:01;;;;;;;3.47;1.50;;;;;;;;;;5009054;28;20490;-64
2022/09/18 03:00:29;;;;;;;2.97;1.40;;;;;;;;;;5028532;28;20497;-64
2022/09/18 03:02:58;;;;;;;2.03;1.25;;;;;;;;;;5004716;28;20040;-64
2022/09/18 03:05:34;;;;;;;2.83;1.38;;;;;;;;;;5006663;28;20030;-64
2022/09/18 03:08:01;;;;;;;2.00;1.13;;;;;;;;;;4996435;28;20037;-64
2022/09/18 03:10:30;;;;;;;2.25;1.45;;;;;;;;;;5008329;28;20145;-64
2022/09/18 03:12:56;;;;;;;1.25;1.13;;;;;;;;;;4988355;28;20038;-64
2022/09/18 03:15:22;;;;;;;3.75;1.52;;;;;;;;;;5002080;28;20479;-64
2022/09/18 03:17:50;;;;;;;1.63;1.33;;;;;;;;;;5029768;28;20038;-64
2022/09/18 03:20:16;;;;;;;3.92;1.50;;;;;;;;;;5010721;28;20559;-64
2022/09/18 03:22:42;;;;;;;3.28;1.38;;;;;;;;;;4999749;28;20029;-64
2022/09/18 03:25:13;;;;;;;1.92;1.20;;;;;;;;;;5036701;28;20429;-64
2022/09/18 03:27:41;;;;;;;1.75;1.27;;;;;;;;;;5007337;28;20033;-64
2022/09/18 03:30:09;;;;;;;1.40;1.05;;;;;;;;;;5029555;28;20022;-64
2022/09/18 03:32:36;;;;;;;2.25;1.25;;;;;;;;;;5009054;28;20030;-64
2022/09/18 03:35:06;;;;;;;4.25;1.52;;;;;;;;;;5001799;28;20374;-64
2022/09/18 03:37:33;;;;;;;2.25;1.30;;;;;;;;;;5033869;28;20027;-64
2022/09/18 03:40:01;;;;;;;1.77;1.50;;;;;;;;;;4994380;28;20034;-64
2022/09/18 03:42:28;;;;;;;1.75;1.48;;;;;;;;;;5012911;28;20056;-64
2022/09/18 03:44:56;;;;;;;2.38;1.33;;;;;;;;;;5012918;28;20029;-64
2022/09/18 03:47:27;;;;;;;3.00;1.60;;;;;;;;;;5008079;28;20062;-64
2022/09/18 03:49:54;;;;;;;4.18;1.50;;;;;;;;;;5004857;28;20276;-64
2022/09/18 03:52:21;;;;;;;2.58;1.20;;;;;;;;;;5009525;28;20110;-64
2022/09/18 03:54:53;;;;;;;2.50;1.52;;;;;;;;;;4999562;28;20398;-64
2022/09/18 03:57:40;;;;;;;3.08;1.27;;;;;;;;;;5009646;28;20034;-64
2022/09/18 04:00:19;;;;;;;1.80;1.38;;;;;;;;;;5044468;28;20431;-64
2022/09/18 04:02:50;;;;;;;2.65;1.30;;;;;;;;;;5040531;28;20081;-63
2022/09/18 04:05:55;;;;;;;3.33;1.50;;;;;;;;;;4995854;28;20073;-64
2022/09/18 04:08:59;;;;;;;2.42;1.30;;;;;;;;;;4981522;28;20042;-64
2022/09/18 04:11:35;;;;;;;2.50;1.20;;;;;;;;;;5010750;28;20069;-64
2022/09/18 04:14:01;;;;;;;1.77;1.30;;;;;;;;;;4993548;28;20060;-64
2022/09/18 04:16:27;;;;;;;1.67;1.30;;;;;;;;;;4991362;28;20467;-64
2022/09/18 04:18:53;;;;;;;2.55;1.15;;;;;;;;;;5006978;28;20493;-65
2022/09/18 04:21:21;;;;;;;1.70;1.30;;;;;;;;;;5007674;28;20065;-64
2022/09/18 04:23:50;;;;;;;1.92;1.35;;;;;;;;;;4990452;28;20129;-65
2022/09/18 04:26:18;;;;;;;2.17;1.45;;;;;;;;;;5007043;28;20076;-65
2022/09/18 04:28:51;;;;;;;3.40;1.25;;;;;;;;;;4990805;28;20030;-65
2022/09/18 04:31:18;;;;;;;1.77;1.30;;;;;;;;;;4991343;28;20042;-65
2022/09/18 04:33:45;;;;;;;2.15;1.38;;;;;;;;;;5007934;28;20543;-65
2022/09/18 04:36:11;;;;;;;2.55;1.55;;;;;;;;;;4980650;28;20108;-65
2022/09/18 04:38:38;;;;;;;3.03;1.50;;;;;;;;;;4992375;28;20438;-65
2022/09/18 04:41:04;;;;;;;1.30;1.20;;;;;;;;;;4997805;28;20038;-65
2022/09/18 04:43:31;;;;;;;2.55;1.50;;;;;;;;;;5017746;28;20031;-65
2022/09/18 04:45:58;;;;;;;2.10;1.60;;;;;;;;;;5016659;28;20121;-65
2022/09/18 04:48:24;;;;;;;8.23;2.08;;;;;;;;;;5018534;28;20045;-65
2022/09/18 04:50:52;;;;;;;2.38;1.65;;;;;;;;;;5041843;28;20014;-64
2022/09/18 04:53:18;;;;;;;3.05;1.55;;;;;;;;;;5021012;28;20056;-64
2022/09/18 04:55:46;;;;;;;3.03;1.63;;;;;;;;;;5021889;28;20065;-64
2022/09/18 04:58:14;;;;;;;2.83;1.50;;;;;;;;;;5016854;28;20018;-64
2022/09/18 05:00:43;;;;;;;1.90;1.33;;;;;;;;;;5019273;28;20040;-65
2022/09/18 05:03:10;;;;;;;6.28;1.80;;;;;;;;;;5020118;28;20034;-64
2022/09/18 05:05:38;;;;;;;2.53;1.90;;;;;;;;;;5021908;28;20125;-64
2022/09/18 05:08:07;;;;;;;4.13;1.50;;;;;;;;;;5011512;28;20025;-65
2022/09/18 05:10:33;;;;;;;2.47;1.45;;;;;;;;;;5009875;28;20049;-65
2022/09/18 05:13:02;;;;;;;1.42;1.20;;;;;;;;;;5034004;28;20034;-64
2022/09/18 05:15:28;;;;;;;1.85;1.60;;;;;;;;;;5031166;28;20022;-64
2022/09/18 05:18:07;;;;;;;2.60;1.80;;;;;;;;;;5041352;28;20057;-64
2022/09/18 05:20:33;;;;;;;2.13;1.60;;;;;;;;;;5007743;28;20370;-64
2022/09/18 05:23:05;;;;;;;6.72;1.70;;;;;;;;;;5016593;28;20075;-64
2022/09/18 05:25:32;;;;;;;1.58;1.30;;;;;;;;;;5044197;28;20045;-64
2022/09/18 05:27:59;;;;;;;4.10;1.58;;;;;;;;;;5015836;28;20021;-64
2022/09/18 05:30:30;;;;;;;2.38;1.67;;;;;;;;;;5010468;28;20030;-64
2022/09/18 05:33:00;;;;;;;2.25;1.30;;;;;;;;;;4995712;28;20037;-64
2022/09/18 05:35:30;;;;;;;1.85;1.58;;;;;;;;;;5041865;28;20483;-64
2022/09/18 05:37:57;;;;;;;3.67;1.42;;;;;;;;;;5024231;28;20433;-65
2022/09/18 05:40:25;;;;;;;2.30;2.10;;;;;;;;;;5006217;28;20031;-64
2022/09/18 05:42:52;;;;;;;4.70;1.98;;;;;;;;;;5026665;28;20037;-64
2022/09/18 05:45:19;;;;;;;4.22;1.80;;;;;;;;;;5017213;28;20077;-64
2022/09/18 05:47:54;;;;;;;2.08;1.60;;;;;;;;;;5017984;28;20030;-64
2022/09/18 05:50:21;;;;;;;2.17;1.40;;;;;;;;;;5008109;28;20021;-65
2022/09/18 05:52:47;;;;;;;1.92;1.25;;;;;;;;;;5016408;28;20053;-64
2022/09/18 05:55:14;;;;;;;2.38;1.60;;;;;;;;;;5019839;28;20036;-64
2022/09/18 05:57:41;;;;;;;7.57;1.67;;;;;;;;;;5021699;28;20053;-65
2022/09/18 06:00:08;;;;;;;3.47;1.48;;;;;;;;;;5018618;28;20033;-64
2022/09/18 06:02:56;;;;;;;1.98;1.63;;;;;;;;;;5018986;28;20037;-64
2022/09/18 06:05:23;;;;;;;1.92;1.55;;;;;;;;;;5014663;28;20120;-64
2022/09/18 06:07:49;;;;;;;5.15;1.67;;;;;;;;;;5009508;28;20025;-64
2022/09/18 06:10:19;;;;;;;2.63;1.70;;;;;;;;;;5013446;28;20103;-64
2022/09/18 06:12:45;;;;;;;2.78;1.30;;;;;;;;;;5001009;28;20105;-64
2022/09/18 06:15:13;;;;;;;1.60;1.35;;;;;;;;;;5012988;28;20026;-64
2022/09/18 06:17:39;;;;;;;2.17;1.40;;;;;;;;;;5001343;28;20030;-64
2022/09/18 06:20:07;;;;;;;4.07;1.48;;;;;;;;;;5002217;28;20080;-65
2022/09/18 06:22:35;;;;;;;3.55;1.67;;;;;;;;;;5014530;28;20101;-65
2022/09/18 06:25:27;;;;;;;2.90;1.42;;;;;;;;;;5014510;28;20049;-65
2022/09/18 06:27:59;;;;;;;9.80;1.95;;;;;;;;;;5034243;28;20054;-65
2022/09/18 06:30:31;;;;;;;4.22;1.50;;;;;;;;;;5014038;28;20080;-65
2022/09/18 06:33:02;;;;;;;4.22;1.40;;;;;;;;;;4999233;28;20026;-65
2022/09/18 06:35:53;;;;;;;3.00;1.52;;;;;;;;;;5017560;28;20045;-65
2022/09/18 06:38:28;;;;;;;2.95;1.52;;;;;;;;;;5015160;28;20030;-65
2022/09/18 06:40:55;;;;;;;1.73;1.42;;;;;;;;;;5009614;28;20057;-65
2022/09/18 06:43:25;;;;;;;2.10;1.50;;;;;;;;;;5007522;28;20015;-65
2022/09/18 06:46:29;;;;;;;5.28;1.73;;;;;;;;;;4993420;28;20038;-65
2022/09/18 06:48:57;;;;;;;3.47;1.45;;;;;;;;;;4993967;28;20129;-64
2022/09/18 06:51:23;;;;;;;3.72;1.58;;;;;;;;;;4990957;28;20034;-64
2022/09/18 06:54:09;;;;;;;6.03;1.58;;;;;;;;;;4976262;28;20105;-64
2022/09/18 06:56:37;;;;;;;2.33;2.13;;;;;;;;;;4976655;28;20481;-64
2022/09/18 06:59:06;;;;;;;4.60;2.10;;;;;;;;;;4975803;28;20093;-64
2022/09/18 07:01:34;;;;;;;3.42;1.85;;;;;;;;;;4975228;28;20026;-64
2022/09/18 07:04:10;;;;;;;8.88;2.40;;;;;;;;;;4975161;28;20505;-64
2022/09/18 07:06:43;;;;;;;2.53;1.85;;;;;;;;;;4991169;28;20564;-64
2022/09/18 07:09:10;;;;;;;3.92;1.83;;;;;;;;;;4989956;28;20092;-64
2022/09/18 07:11:56;;;;;;;4.45;2.28;;;;;;;;;;4992887;28;20077;-64
2022/09/18 07:14:31;;;;;;;2.60;2.10;;;;;;;;;;4976395;28;20038;-64
2022/09/18 07:17:11;;;;;;;3.72;2.45;;;;;;;;;;4991609;28;20038;-64
2022/09/18 07:19:37;;;;;;;4.80;2.88;;;;;;;;;;4995443;28;20026;-64
2022/09/18 07:22:05;;;;;;;3.35;2.10;;;;;;;;;;4995247;28;20060;-65
2022/09/18 07:24:37;;;;;;;3.87;2.57;;;;;;;;;;5022947;28;20033;-64
2022/09/18 07:27:04;;;;;;;4.07;2.72;;;;;;;;;;5006033;28;20034;-64
2022/09/18 07:29:31;;;;;;;6.25;3.03;;;;;;;;;;5026925;28;20049;-64
2022/09/18 07:31:58;;;;;;;4.13;2.63;;;;;;;;;;5013464;28;20054;-64
2022/09/18 07:34:25;;;;;;;5.82;2.75;;;;;;;;;;5012305;28;20018;-64
2022/09/18 07:36:52;;;;;;;3.53;2.72;;;;;;;;;;5008788;28;20030;-64
2022/09/18 07:39:21;;;;;;;3.38;2.47;;;;;;;;;;5008002;28;20030;-64
2022/09/18 07:42:11;;;;;;;4.43;3.42;;;;;;;;;;4997678;28;20049;-64
2022/09/18 07:44:39;;;;;;;6.40;2.78;;;;;;;;;;5007727;28;20632;-64
2022/09/18 07:47:06;;;;;;;5.57;2.50;;;;;;;;;;4991943;28;20042;-64
2022/09/18 07:49:37;;;;;;;5.85;2.85;;;;;;;;;;5005715;28;20022;-65
2022/09/18 07:52:06;;;;;;;5.78;2.67;;;;;;;;;;4990026;28;20072;-65
2022/09/18 07:54:41;;;;;;;3.78;2.63;;;;;;;;;;5005784;28;20034;-65
2022/09/18 07:57:13;;;;;;;4.50;2.63;;;;;;;;;;4988894;28;20050;-65
2022/09/18 07:59:54;;;;;;;4.90;2.97;;;;;;;;;;5004795;28;20046;-65
2022/09/18 08:02:22;;;;;;;3.45;2.53;;;;;;;;;;5010536;28;20569;-65
2022/09/18 08:04:48;;;;;;;5.80;2.28;;;;;;;;;;5007972;28;20035;-65
2022/09/18 08:07:39;;;;;;;4.97;2.50;;;;;;;;;;5008433;28;20030;-65
2022/09/18 08:10:16;;;;;;;4.70;2.72;;;;;;;;;;5004223;28;20149;-65
2022/09/18 08:13:03;;;;;;;5.63;2.80;;;;;;;;;;4993057;28;20113;-65
2022/09/18 08:15:47;;;;;;;6.10;2.50;;;;;;;;;;4989675;28;20406;-65
2022/09/18 08:18:31;;;;;;;4.93;2.17;;;;;;;;;;4993282;28;20034;-64
2022/09/18 08:21:07;;;;;;;4.32;2.30;;;;;;;;;;5007153;28;20030;-64
2022/09/18 08:23:41;;;;;;;3.60;2.60;;;;;;;;;;5021098;28;20060;-64
2022/09/18 08:26:07;;;;;;;2.53;1.98;;;;;;;;;;5010261;28;20545;-64
2022/09/18 08:28:34;;;;;;;2.50;1.90;;;;;;;;;;5021686;28;20033;-64
2022/09/18 08:31:02;;;;;;;2.13;1.75;;;;;;;;;;5009668;28;20052;-64
2022/09/18 08:33:28;;;;;;;4.30;1.85;;;;;;;;;;5003282;28;20060;-64
2022/09/18 08:35:55;;;;;;;4.13;2.03;;;;;;;;;;5008027;28;20030;-64
2022/09/18 08:38:30;;;;;;;3.67;1.85;;;;;;;;;;5036864;28;20477;-64
2022/09/18 08:41:18;;;;;;;4.00;1.90;;;;;;;;;;4998364;28;20531;-65
2022/09/18 08:44:23;;;;;;;6.05;1.80;;;;;;;;;;5003623;28;20041;-65
2022/09/18 08:47:01;;;;;;;3.50;1.70;;;;;;;;;;4997875;28;20084;-65
2022/09/18 08:49:39;;;;;;;3.53;1.83;;;;;;;;;;4995131;28;20061;-65
2022/09/18 08:52:15;;;;;;;6.37;1.93;;;;;;;;;;4997429;28;20026;-65
2022/09/18 08:54:42;;;;;;;6.47;1.42;;;;;;;;;;4969316;28;20060;-65
2022/09/18 08:57:33;;;;;;;2.72;1.30;;;;;;;;;;4984202;28;20046;-65
2022/09/18 09:00:20;;;;;;;2.35;1.42;;;;;;;;;;4970182;28;20026;-65
2022/09/18 09:03:24;;;;;;;3.05;1.27;;;;;;;;;;4983253;28;20165;-65
2022/09/18 09:06:04;;;;;;;2.83;1.50;;;;;;;;;;4996318;28;20050;-65
2022/09/18 09:08:51;;;;;;;5.70;1.47;;;;;;;;;;4972823;28;20046;-65
2022/09/18 09:11:29;;;;;;;4.85;1.20;;;;;;;;;;4971391;28;20031;-65
2022/09/18 09:13:55;;;;;;;7.28;1.45;;;;;;;;;;4973457;28;20514;-65
2022/09/18 09:16:27;;;;;;;11.38;1.83;;;;;;;;;;4991522;28;20034;-65
2022/09/18 09:18:53;;;;;;;3.38;1.40;;;;;;;;;;4963286;28;20038;-65
2022/09/18 09:21:24;;;;;;;7.50;1.40;;;;;;;;;;5019741;28;20026;-65
2022/09/18 09:23:54;;;;;;;7.65;1.30;;;;;;;;;;5028344;28;20026;-65
2022/09/18 09:26:40;;;;;;;2.90;1.63;;;;;;;;;;4999476;28;20044;-65
2022/09/18 09:29:30;;;;;;;2.88;1.00;;;;;;;;;;5000921;28;20467;-65
2022/09/18 09:32:16;;;;;;;9.40;1.15;;;;;;;;;;5027429;28;20109;-65
2022/09/18 09:35:04;;;;;;;7.55;1.63;;;;;;;;;;5010144;28;20077;-65
2022/09/18 09:37:42;;;;;;;9.45;1.70;;;;;;;;;;5018456;28;20131;-65
2022/09/18 09:40:22;;;;;;;4.95;1.08;;;;;;;;;;5010704;28;20474;-65
2022/09/18 09:42:57;;;;;;;6.40;1.80;;;;;;;;;;5011734;28;20123;-65
2022/09/18 09:45:43;;;;;;;6.95;1.13;;;;;;;;;;5027890;28;20081;-65
2022/09/18 09:48:21;;;;;;;7.22;1.20;;;;;;;;;;5008546;28;20036;-65
2022/09/18 09:50:51;;;;;;;5.18;1.23;;;;;;;;;;5025362;28;20041;-65
2022/09/18 09:53:18;;;;;;;3.50;0.88;;;;;;;;;;5015163;28;20097;-65
2022/09/18 09:55:48;;;;;;;4.22;1.10;;;;;;;;;;5016103;28;20041;-65
2022/09/18 09:58:22;;;;;;;6.18;1.20;;;;;;;;;;5016240;28;20071;-65
2022/09/18 10:00:54;;;;;;;10.90;1.10;;;;;;;;;;5016068;28;20382;-65
2022/09/18 10:03:26;;;;;;;5.05;1.30;;;;;;;;;;5012398;28;20037;-65
2022/09/18 10:06:02;;;;;;;3.83;1.10;;;;;;;;;;5009008;28;20037;-66
2022/09/18 10:08:34;;;;;;;3.88;1.23;;;;;;;;;;5027983;28;20061;-65
2022/09/18 10:11:07;;;;;;;2.42;0.95;;;;;;;;;;4997000;28;20065;-65
2022/09/18 10:13:34;;;;;;;;;;;;;;;;;;5021274;28;20025;-65
2022/09/18 10:16:03;;;;;;;5.13;2.13;;;;;;;;;;4998218;28;19913;-65
2022/09/18 10:18:31;;;;;;;5.00;1.40;;;;;;;;;;5004114;28;20080;-65
2022/09/18 10:21:02;;;;;;;2.45;1.00;;;;;;;;;;5004564;28;20074;-65
2022/09/18 10:23:32;;;;;;;8.80;1.30;;;;;;;;;;5019446;28;20032;-65
2022/09/18 10:25:59;;;;;;;4.20;1.17;;;;;;;;;;5013107;28;20429;-65
2022/09/18 10:28:28;;;;;;;5.63;1.00;;;;;;;;;;5018709;28;20045;-65
2022/09/18 10:31:04;;;;;;;3.20;1.20;;;;;;;;;;5016880;28;20037;-65
2022/09/18 10:33:36;;;;;;;6.78;1.15;;;;;;;;;;5029597;28;20026;-65
2022/09/18 10:36:15;;;;;;;6.05;0.93;;;;;;;;;;5024161;28;20161;-65
2022/09/18 10:38:41;;;;;;;8.85;1.73;;;;;;;;;;5019445;28;20030;-65
2022/09/18 10:41:26;;;;;;;4.70;1.00;;;;;;;;;;5007649;28;20080;-65
2022/09/18 10:43:52;;;;;;;4.13;1.10;;;;;;;;;;5035960;28;20509;-65
2022/09/18 10:46:26;;;;;;;7.75;1.15;;;;;;;;;;5003025;28;20057;-65
2022/09/18 10:48:53;;;;;;;4.60;1.00;;;;;;;;;;5019960;28;20025;-65
2022/09/18 10:51:24;;;;;;;7.50;1.13;;;;;;;;;;5004250;28;20018;-65
2022/09/18 10:54:05;;;;;;;4.32;1.00;;;;;;;;;;5033073;28;20029;-65
2022/09/18 10:56:56;;;;;;;11.25;1.35;;;;;;;;;;5003999;28;20081;-65
2022/09/18 10:59:28;;;;;;;5.68;1.13;;;;;;;;;;5010651;28;20033;-65
2022/09/18 11:02:20;;;;;;;0.88;0.80;;;;;;;;;;5017045;28;20121;-65
2022/09/18 11:04:54;;;;;;;3.40;1.10;;;;;;;;;;5006161;28;20033;-65
2022/09/18 11:07:38;;;;;;;3.85;1.05;;;;;;;;;;5015677;28;20050;-65
2022/09/18 11:10:07;;;;;;;7.05;1.40;;;;;;;;;;4999437;28;20679;-65
2022/09/18 11:12:34;;;;;;;9.05;1.13;;;;;;;;;;5034391;28;20410;-65
2022/09/18 11:15:04;;;;;;;4.88;1.00;;;;;;;;;;5002258;28;20072;-65
2022/09/18 11:17:32;;;;;;;8.82;1.13;;;;;;;;;;5034116;28;20040;-65
2022/09/18 11:20:02;;;;;;;3.42;1.00;;;;;;;;;;5007279;28;20060;-65
2022/09/18 11:22:51;;;;;;;4.60;1.52;;;;;;;;;;5017273;28;20019;-65
2022/09/18 11:25:26;;;;;;;5.00;1.55;;;;;;;;;;5019315;28;20390;-65
2022/09/18 11:28:01;;;;;;;11.25;1.85;;;;;;;;;;5018649;28;20021;-65
2022/09/18 11:30:37;;;;;;;6.00;1.17;;;;;;;;;;5022842;28;20021;-65
2022/09/18 11:33:09;;;;;;;6.68;1.15;;;;;;;;;;5017556;28;20026;-65
2022/09/18 11:35:36;;;;;;;5.25;1.27;;;;;;;;;;5020164;28;20422;-65
2022/09/18 11:38:07;;;;;;;4.05;1.55;;;;;;;;;;5002837;28;20175;-65
2022/09/18 11:40:43;;;;;;;5.35;1.10;;;;;;;;;;5017425;28;20030;-65
2022/09/18 11:43:14;;;;;;;2.80;1.05;;;;;;;;;;5020625;28;20402;-65
2022/09/18 11:45:47;;;;;;;5.72;1.08;;;;;;;;;;5021568;28;20034;-66
2022/09/18 11:48:23;;;;;;;6.70;1.10;;;;;;;;;;5017726;28;20529;-65
2022/09/18 11:50:51;;;;;;;7.78;1.38;;;;;;;;;;5002784;28;20623;-65
2022/09/18 11:53:22;;;;;;;3.78;1.30;;;;;;;;;;5005174;28;20068;-65
2022/09/18 11:55:52;;;;;;;11.00;1.25;;;;;;;;;;5026856;28;20398;-65
2022/09/18 11:58:20;;;;;;;2.95;1.20;;;;;;;;;;5005641;28;20084;-65
2022/09/18 12:00:51;;;;;;;3.88;1.00;;;;;;;;;;5004317;28;20072;-65
2022/09/18 12:03:27;;;;;;;6.95;1.20;;;;;;;;;;5033966;28;20083;-65
2022/09/18 12:05:53;;;;;;;5.28;1.40;;;;;;;;;;5023918;28;20038;-65
2022/09/18 12:08:45;;;;;;;6.57;1.27;;;;;;;;;;5026124;28;20508;-65
2022/09/18 12:11:22;;;;;;;1.55;0.80;;;;;;;;;;5008304;28;20034;-65
2022/09/18 12:13:59;;;;;;;3.63;1.02;;;;;;;;;;5011050;28;20030;-65
2022/09/18 12:16:32;;;;;;;5.32;1.00;;;;;;;;;;5029589;28;20108;-65
2022/09/18 12:18:58;;;;;;;;;;;;;;;;;;5008661;28;20084;-66
2022/09/18 12:21:33;;;;;;;5.25;1.20;;;;;;;;;;5041714;28;20391;-65
2022/09/18 12:24:00;;;;;;;5.18;1.30;;;;;;;;;;5013629;28;20026;-66
2022/09/18 12:26:32;;;;;;;6.28;1.42;;;;;;;;;;5008066;28;20038;-66
2022/09/18 12:29:04;;;;;;;4.10;1.00;;;;;;;;;;5024841;28;20652;-66
2022/09/18 12:31:39;;;;;;;7.38;0.98;;;;;;;;;;5007358;28;20034;-66
2022/09/18 12:34:14;;;;;;;3.65;0.82;;;;;;;;;;5009224;28;20038;-66
2022/09/18 12:36:40;;;;;;;5.35;1.15;;;;;;;;;;5010509;28;20401;-66
2022/09/18 12:39:12;;;;;;;9.18;1.48;;;;;;;;;;5005191;28;20327;-65
2022/09/18 12:41:46;;;;;;;11.27;1.17;;;;;;;;;;5012421;28;20030;-66
2022/09/18 12:44:12;;;;;;;5.93;1.10;;;;;;;;;;5007614;28;20057;-66
2022/09/18 12:46:38;;;;;;;6.05;1.20;;;;;;;;;;5006290;28;20022;-66
2022/09/18 12:49:07;;;;;;;4.60;0.95;;;;;;;;;;5005610;28;20030;-65
2022/09/18 12:51:52;;;;;;;6.93;0.95;;;;;;;;;;5006178;28;20025;-66
2022/09/18 12:54:36;;;;;;;7.63;1.23;;;;;;;;;;5008354;28;20053;-66
2022/09/18 12:57:05;;;;;;;3.25;1.20;;;;;;;;;;5009430;28;20045;-66
2022/09/18 12:59:52;;;;;;;5.50;0.95;;;;;;;;;;4999282;28;20540;-66
2022/09/18 13:02:18;;;;;;;4.65;1.00;;;;;;;;;;5008764;28;20021;-66
2022/09/18 13:04:50;;;;;;;6.25;1.00;;;;;;;;;;5012244;28;20084;-66
2022/09/18 13:07:16;;;;;;;5.53;1.00;;;;;;;;;;5012655;28;20045;-66
2022/09/18 13:09:50;;;;;;;8.38;0.90;;;;;;;;;;5009317;28;20164;-66
2022/09/18 13:12:22;;;;;;;5.25;1.27;;;;;;;;;;5007587;28;20033;-66
2022/09/18 13:14:50;;;;;;;8.32;1.20;;;;;;;;;;5009135;28;20049;-66
2022/09/18 13:17:20;;;;;;;6.05;1.00;;;;;;;;;;5008537;28;20116;-66
2022/09/18 13:19:55;;;;;;;2.67;0.80;;;;;;;;;;5014757;28;20034;-66
2022/09/18 13:22:22;;;;;;;3.22;0.88;;;;;;;;;;5014298;28;20088;-66
2022/09/18 13:24:53;;;;;;;2.45;0.90;;;;;;;;;;5011656;28;20040;-66
2022/09/18 13:27:20;;;;;;;2.90;1.77;;;;;;;;;;5007742;28;20034;-66
2022/09/18 13:29:48;;;;;;;3.58;0.80;;;;;;;;;;5011426;28;20092;-66
2022/09/18 13:32:20;;;;;;;6.45;0.77;;;;;;;;;;5024915;28;20062;-65
2022/09/18 13:34:53;;;;;;;5.25;1.10;;;;;;;;;;5024107;28;20046;-65
2022/09/18 13:37:21;;;;;;;6.03;1.02;;;;;;;;;;5010145;28;20387;-65
2022/09/18 13:39:58;;;;;;;5.47;1.05;;;;;;;;;;5026550;28;20033;-65
2022/09/18 13:42:27;;;;;;;4.13;1.08;;;;;;;;;;5010253;28;20109;-65
2022/09/18 13:44:55;;;;;;;4.03;0.98;;;;;;;;;;5005805;28;20128;-65
2022/09/18 13:47:23;;;;;;;3.33;0.90;;;;;;;;;;5008184;28;20041;-65
2022/09/18 13:49:53;;;;;;;3.85;0.90;;;;;;;;;;5007792;28;20018;-65
2022/09/18 13:52:35;;;;;;;6.07;1.20;;;;;;;;;;5007028;28;20072;-65
2022/09/18 13:55:02;;;;;;;1.23;0.80;;;;;;;;;;5005068;28;20169;-65
2022/09/18 13:57:31;;;;;;;3.53;0.82;;;;;;;;;;5010558;28;20509;-65
2022/09/18 14:00:00;;;;;;;3.97;0.80;;;;;;;;;;5009049;28;20033;-65
2022/09/18 14:02:26;;;;;;;2.28;0.75;;;;;;;;;;5007414;28;20493;-65
2022/09/18 14:05:00;;;;;;;4.63;0.73;;;;;;;;;;5009102;28;20048;-65
2022/09/18 14:07:26;;;;;;;9.77;1.10;;;;;;;;;;5007782;28;20033;-65
2022/09/18 14:09:54;;;;;;;6.80;1.00;;;;;;;;;;5008788;28;20476;-65
2022/09/18 14:12:21;;;;;;;5.38;1.23;;;;;;;;;;5024134;28;20073;-65
2022/09/18 14:15:01;;;;;;;2.80;0.82;;;;;;;;;;5009396;28;20026;-65
2022/09/18 14:17:28;;;;;;;8.23;1.30;;;;;;;;;;5007653;28;20042;-65
2022/09/18 14:20:08;;;;;;;5.97;1.17;;;;;;;;;;5007391;28;20026;-65
2022/09/18 14:22:37;;;;;;;3.63;0.93;;;;;;;;;;5008672;28;20048;-65
2022/09/18 14:25:09;;;;;;;7.10;1.10;;;;;;;;;;5009169;28;20026;-65
2022/09/18 14:27:56;;;;;;;6.28;1.05;;;;;;;;;;5009307;28;20018;-65
2022/09/18 14:30:23;;;;;;;5.50;1.20;;;;;;;;;;5007510;28;20026;-65
2022/09/18 14:33:04;;;;;;;1.15;0.88;;;;;;;;;;5005384;28;20034;-65
2022/09/18 14:35:49;;;;;;;5.25;1.00;;;;;;;;;;5010499;28;20031;-65
2022/09/18 14:38:16;;;;;;;7.93;0.80;;;;;;;;;;5010933;28;20389;-65
2022/09/18 14:40:47;;;;;;;6.28;1.33;;;;;;;;;;5016616;28;20394;-65
2022/09/18 14:43:15;;;;;;;2.80;0.80;;;;;;;;;;5010845;28;20476;-65
2022/09/18 14:45:42;;;;;;;10.98;1.33;;;;;;;;;;5012335;28;20075;-65
2022/09/18 14:48:21;;;;;;;4.90;1.05;;;;;;;;;;5013407;28;20101;-65
2022/09/18 14:50:57;;;;;;;3.25;0.98;;;;;;;;;;5010945;28;20559;-65
2022/09/18 14:53:25;;;;;;;3.55;1.08;;;;;;;;;;5012697;28;20029;-65
2022/09/18 14:55:54;;;;;;;5.90;1.38;;;;;;;;;;5010735;28;20409;-65
2022/09/18 14:58:21;;;;;;;7.03;1.30;;;;;;;;;;5010525;28;20033;-65
2022/09/18 15:00:52;;;;;;;3.35;0.80;;;;;;;;;;5011086;28;20025;-65
2022/09/18 15:03:22;;;;;;;1.80;0.80;;;;;;;;;;5009409;28;20029;-65
2022/09/18 15:05:49;;;;;;;5.90;1.10;;;;;;;;;;5010747;28;20014;-65
2022/09/18 15:08:20;;;;;;;7.40;1.00;;;;;;;;;;5010976;28;20061;-65
2022/09/18 15:10:50;;;;;;;3.95;0.90;;;;;;;;;;5009405;28;20133;-65
2022/09/18 15:13:16;;;;;;;3.80;0.95;;;;;;;;;;5011574;28;20037;-65